Time;durP1;ratioP1;P1;durP2;ratioP2;P2;SDS_P1;SDS_P2;PMS_P1;PMS_P2;Temp;Humidity;BMP_temperature;BMP_pressure;BME280_temperature;BME280_humidity;BME280_pressure;Samples;Min_cycle;Max_cycle;Signal;HPM_P1;HPM_P2
2022/12/12 00:01:40;;;;;;;25.70;10.43;;;;;;;;;;4974890;28;20066;-83
2022/12/12 00:04:06;;;;;;;26.17;10.27;;;;;;;;;;4990190;28;20034;-84
2022/12/12 00:06:32;;;;;;;24.80;9.40;;;;;;;;;;4974675;28;20471;-84
2022/12/12 00:08:57;;;;;;;22.53;9.87;;;;;;;;;;4974734;28;20030;-83
2022/12/12 00:11:24;;;;;;;20.27;9.33;;;;;;;;;;4989876;28;20042;-83
2022/12/12 00:13:51;;;;;;;24.90;10.17;;;;;;;;;;4973333;28;20419;-83
2022/12/12 00:16:17;;;;;;;23.53;10.67;;;;;;;;;;4989596;28;20039;-83
2022/12/12 00:18:44;;;;;;;21.50;9.30;;;;;;;;;;4973432;28;20545;-82
2022/12/12 00:21:21;;;;;;;23.50;8.90;;;;;;;;;;4974964;28;20435;-85
2022/12/12 00:23:46;;;;;;;21.73;10.73;;;;;;;;;;4974512;28;20026;-83
2022/12/12 00:26:33;;;;;;;24.43;9.63;;;;;;;;;;4973283;28;20446;-83
2022/12/12 00:28:59;;;;;;;20.37;9.23;;;;;;;;;;4973187;28;20062;-84
2022/12/12 00:31:26;;;;;;;20.03;9.27;;;;;;;;;;4973645;28;20061;-84
2022/12/12 00:33:52;;;;;;;19.73;9.33;;;;;;;;;;4989183;28;20061;-83
2022/12/12 00:36:24;;;;;;;17.53;8.93;;;;;;;;;;4988031;28;20406;-83
2022/12/12 00:38:51;;;;;;;23.40;10.07;;;;;;;;;;4970437;28;20034;-84
2022/12/12 00:41:17;;;;;;;24.43;9.17;;;;;;;;;;4970044;28;20066;-82
2022/12/12 00:43:43;;;;;;;23.30;9.57;;;;;;;;;;4955599;28;20058;-85
2022/12/12 00:46:17;;;;;;;23.53;9.60;;;;;;;;;;4969841;28;20122;-83
2022/12/12 00:48:43;;;;;;;27.87;11.43;;;;;;;;;;4954252;29;20344;-84
2022/12/12 00:51:12;;;;;;;27.30;9.90;;;;;;;;;;4969222;28;20027;-83
2022/12/12 00:53:38;;;;;;;23.50;10.30;;;;;;;;;;4954547;29;20503;-83
2022/12/12 00:56:04;;;;;;;22.30;9.43;;;;;;;;;;4954551;28;20029;-83
2022/12/12 00:58:31;;;;;;;26.67;11.43;;;;;;;;;;4954292;29;20062;-82
2022/12/12 01:01:05;;;;;;;21.87;8.97;;;;;;;;;;4968560;28;20034;-83
2022/12/12 01:03:32;;;;;;;29.90;9.90;;;;;;;;;;4968455;28;20031;-84
2022/12/12 01:05:58;;;;;;;26.57;9.73;;;;;;;;;;4952867;29;20116;-84
2022/12/12 01:08:23;;;;;;;32.40;11.63;;;;;;;;;;4953011;29;20023;-83
2022/12/12 01:10:49;;;;;;;25.93;10.17;;;;;;;;;;4952405;29;20027;-83
2022/12/12 01:13:14;;;;;;;29.23;11.93;;;;;;;;;;4968855;28;20031;-83
2022/12/12 01:15:40;;;;;;;25.00;9.80;;;;;;;;;;4953524;28;20122;-83
2022/12/12 01:18:05;;;;;;;26.53;10.87;;;;;;;;;;4952849;29;20038;-83
2022/12/12 01:20:31;;;;;;;24.80;11.30;;;;;;;;;;4952197;29;20347;-83
2022/12/12 01:22:56;;;;;;;25.60;10.80;;;;;;;;;;4969103;28;20027;-83
2022/12/12 01:25:22;;;;;;;27.33;11.90;;;;;;;;;;4969447;28;20117;-83
2022/12/12 01:27:49;;;;;;;23.73;11.43;;;;;;;;;;4953837;28;20059;-83
2022/12/12 01:30:17;;;;;;;24.73;11.30;;;;;;;;;;4952628;29;20505;-82
2022/12/12 01:32:45;;;;;;;24.73;10.73;;;;;;;;;;4968893;28;20483;-83
2022/12/12 01:35:10;;;;;;;28.30;10.63;;;;;;;;;;4969204;28;20044;-83
2022/12/12 01:37:39;;;;;;;23.70;11.30;;;;;;;;;;4964644;28;20622;-83
2022/12/12 01:40:08;;;;;;;32.37;12.13;;;;;;;;;;4988133;28;20030;-84
2022/12/12 01:42:34;;;;;;;30.43;12.40;;;;;;;;;;4971887;28;20023;-83
2022/12/12 01:45:00;;;;;;;23.10;9.40;;;;;;;;;;4988106;28;20114;-83
2022/12/12 01:47:25;;;;;;;22.87;11.20;;;;;;;;;;4972772;28;20074;-83
2022/12/12 01:49:53;;;;;;;24.77;10.57;;;;;;;;;;4988071;28;20513;-82
2022/12/12 01:52:23;;;;;;;26.40;11.30;;;;;;;;;;4987243;28;20141;-83
2022/12/12 01:54:55;;;;;;;23.07;10.60;;;;;;;;;;4972600;28;20027;-82
2022/12/12 01:57:28;;;;;;;26.58;11.68;;;;;;;;;;4988925;28;20435;-82
2022/12/12 01:59:55;;;;;;;27.90;11.07;;;;;;;;;;4974445;28;20038;-83
2022/12/12 02:02:20;;;;;;;27.73;10.77;;;;;;;;;;4974214;28;20034;-83
2022/12/12 02:04:46;;;;;;;24.20;10.27;;;;;;;;;;4973872;28;20031;-82
2022/12/12 02:07:11;;;;;;;24.87;10.53;;;;;;;;;;4987493;28;20079;-83
2022/12/12 02:09:37;;;;;;;25.60;10.07;;;;;;;;;;4987528;28;20026;-82
2022/12/12 02:12:04;;;;;;;22.60;9.50;;;;;;;;;;4973941;28;20054;-82
2022/12/12 02:14:42;;;;;;;26.13;11.23;;;;;;;;;;4988623;28;20487;-81
2022/12/12 02:17:31;;;;;;;22.13;9.57;;;;;;;;;;4973306;28;20023;-83
2022/12/12 02:20:21;;;;;;;23.90;10.63;;;;;;;;;;4972740;28;20478;-82
2022/12/12 02:23:34;;;;;;;22.97;9.30;;;;;;;;;;4971559;28;20042;-83
2022/12/12 02:26:19;;;;;;;;;;;;;;;;;;4972948;28;20053;-83
2022/12/12 02:28:47;;;;;;;25.30;9.10;;;;;;;;;;4971503;28;20374;-81
2022/12/12 02:31:19;;;;;;;25.57;9.43;;;;;;;;;;4971419;28;20027;-83
2022/12/12 02:34:10;;;;;;;22.55;9.48;;;;;;;;;;4973453;28;20023;-83
2022/12/12 02:36:46;;;;;;;24.37;9.70;;;;;;;;;;4961994;28;20487;-83
2022/12/12 02:39:42;;;;;;;24.57;10.83;;;;;;;;;;4972586;28;20038;-83
2022/12/12 02:42:20;;;;;;;25.07;10.60;;;;;;;;;;4966025;28;20130;-83
2022/12/12 02:44:58;;;;;;;24.63;11.07;;;;;;;;;;4990776;28;20097;-83
2022/12/12 02:47:30;;;;;;;24.20;9.83;;;;;;;;;;4990707;28;20485;-82
2022/12/12 02:50:12;;;;;;;25.25;9.93;;;;;;;;;;4976151;28;20030;-82
2022/12/12 02:52:42;;;;;;;20.07;9.87;;;;;;;;;;4990770;28;20054;-83
2022/12/12 02:55:08;;;;;;;24.23;9.50;;;;;;;;;;4975085;28;20035;-83
2022/12/12 02:57:33;;;;;;;21.43;9.73;;;;;;;;;;4975987;28;20041;-84
2022/12/12 03:00:16;;;;;;;27.13;10.50;;;;;;;;;;4975626;28;20023;-81
2022/12/12 03:07:45;;;;;;;;;;;;;;;;;;4991265;28;20490;-81
2022/12/12 03:08:52;;;;;;;19.47;9.00;;;;;;;;;;4976183;28;20037;-82
2022/12/12 03:11:49;;;;;;;19.47;9.37;;;;;;;;;;4975459;28;20062;-83
2022/12/12 03:14:25;;;;;;;26.70;8.63;;;;;;;;;;4991558;28;20073;-82
2022/12/12 03:17:21;;;;;;;25.70;9.30;;;;;;;;;;4991417;28;20104;-82
2022/12/12 03:19:56;;;;;;;21.50;9.13;;;;;;;;;;4974616;28;20043;-83
2022/12/12 03:22:36;;;;;;;29.73;10.00;;;;;;;;;;4976080;28;20097;-82
2022/12/12 03:25:29;;;;;;;21.80;9.37;;;;;;;;;;4991392;28;20023;-82
2022/12/12 03:28:04;;;;;;;19.63;7.87;;;;;;;;;;4978067;28;20053;-82
2022/12/12 03:30:36;;;;;;;23.93;10.17;;;;;;;;;;4995085;28;20494;-82
2022/12/12 03:33:30;;;;;;;24.67;9.90;;;;;;;;;;4979205;28;20066;-81
2022/12/12 03:36:05;;;;;;;28.60;8.80;;;;;;;;;;4978689;28;20453;-81
2022/12/12 03:38:35;;;;;;;28.07;10.50;;;;;;;;;;4959591;29;20388;-81
2022/12/12 03:41:08;;;;;;;21.67;8.70;;;;;;;;;;4974484;28;20363;-80
2022/12/12 03:43:51;;;;;;;25.03;10.87;;;;;;;;;;4959939;29;20483;-82
2022/12/12 03:46:39;;;;;;;18.57;8.90;;;;;;;;;;4945349;29;20038;-82
2022/12/12 03:49:16;;;;;;;16.10;8.23;;;;;;;;;;4973877;28;20033;-83
2022/12/12 03:51:50;;;;;;;25.83;8.07;;;;;;;;;;4956521;28;20538;-81
2022/12/12 03:54:23;;;;;;;19.30;8.70;;;;;;;;;;4958147;29;20082;-83
2022/12/12 03:56:56;;;;;;;17.70;8.90;;;;;;;;;;4973815;28;20031;-82
2022/12/12 03:59:28;;;;;;;20.87;8.87;;;;;;;;;;4956539;29;20019;-82
2022/12/12 04:02:02;;;;;;;29.00;10.10;;;;;;;;;;4971736;28;20122;-83
2022/12/12 04:04:42;;;;;;;16.80;7.60;;;;;;;;;;4955461;29;20031;-81
2022/12/12 04:07:48;;;;;;;14.80;6.67;;;;;;;;;;4955102;29;20550;-82
2022/12/12 04:13:19;;;;;;;18.13;8.27;;;;;;;;;;4957325;29;20045;-82
2022/12/12 04:16:02;;;;;;;17.53;7.43;;;;;;;;;;4956725;29;20117;-81
2022/12/12 04:18:46;;;;;;;18.67;7.87;;;;;;;;;;4956560;29;20039;-83
2022/12/12 04:24:27;;;;;;;19.53;7.77;;;;;;;;;;4956869;29;20134;-83
2022/12/12 04:27:15;;;;;;;18.93;7.47;;;;;;;;;;4954691;29;20039;-82
2022/12/12 04:29:59;;;;;;;17.13;7.23;;;;;;;;;;4955229;29;20027;-82
2022/12/12 04:32:27;;;;;;;20.83;8.43;;;;;;;;;;4955272;29;20039;-83
2022/12/12 04:34:59;;;;;;;17.87;8.23;;;;;;;;;;4955862;28;20027;-83
2022/12/12 04:37:41;;;;;;;17.35;7.97;;;;;;;;;;4970817;28;20035;-83
2022/12/12 04:40:09;;;;;;;;;;;;;;;;;;4956626;29;20487;-83
2022/12/12 04:42:43;;;;;;;17.67;7.73;;;;;;;;;;4954617;29;19986;-82
2022/12/12 04:45:13;;;;;;;21.07;8.50;;;;;;;;;;4970340;28;20030;-81
2022/12/12 04:47:40;;;;;;;21.07;7.90;;;;;;;;;;4955168;29;20415;-81
2022/12/12 04:50:08;;;;;;;20.83;8.93;;;;;;;;;;4954659;29;20026;-82
2022/12/12 04:52:34;;;;;;;23.43;8.20;;;;;;;;;;4969668;28;20142;-82
2022/12/12 04:55:32;;;;;;;19.97;8.60;;;;;;;;;;4954803;29;20555;-82
2022/12/12 04:57:58;;;;;;;19.27;7.73;;;;;;;;;;4954378;28;20038;-83
2022/12/12 05:00:29;;;;;;;21.67;8.40;;;;;;;;;;4954832;29;20475;-83
2022/12/12 05:03:15;;;;;;;19.60;8.63;;;;;;;;;;4968129;28;20504;-82
2022/12/12 05:05:46;;;;;;;21.80;8.70;;;;;;;;;;4968810;28;20442;-81
2022/12/12 05:08:28;;;;;;;17.07;8.97;;;;;;;;;;4969203;28;20439;-81
2022/12/12 05:10:58;;;;;;;17.87;7.60;;;;;;;;;;4956038;29;20038;-82
2022/12/12 05:13:29;;;;;;;20.83;8.47;;;;;;;;;;4954123;29;20065;-83
2022/12/12 05:15:56;;;;;;;22.58;10.30;;;;;;;;;;4954031;29;20031;-82
2022/12/12 05:18:23;;;;;;;22.60;9.23;;;;;;;;;;4970524;28;20039;-82
2022/12/12 05:20:49;;;;;;;21.57;8.40;;;;;;;;;;4955356;29;20041;-83
2022/12/12 05:23:15;;;;;;;24.00;9.10;;;;;;;;;;4954433;29;20027;-82
2022/12/12 05:25:41;;;;;;;21.43;8.77;;;;;;;;;;4987444;28;20030;-82
2022/12/12 05:28:06;;;;;;;19.93;8.53;;;;;;;;;;4972198;28;20111;-81
2022/12/12 05:30:33;;;;;;;20.10;8.27;;;;;;;;;;4972297;28;20486;-82
2022/12/12 05:32:59;;;;;;;22.93;9.37;;;;;;;;;;4972166;28;20044;-83
2022/12/12 05:35:25;;;;;;;20.10;9.07;;;;;;;;;;4971471;28;20487;-82
2022/12/12 05:37:51;;;;;;;22.83;8.13;;;;;;;;;;4988109;28;20053;-84
2022/12/12 05:40:17;;;;;;;23.63;9.37;;;;;;;;;;4973833;28;20031;-83
2022/12/12 05:42:43;;;;;;;22.57;9.70;;;;;;;;;;4987690;28;20451;-83
2022/12/12 05:45:09;;;;;;;21.27;9.20;;;;;;;;;;4971831;28;20113;-83
2022/12/12 05:47:35;;;;;;;17.80;8.93;;;;;;;;;;4971989;28;20130;-84
2022/12/12 05:50:00;;;;;;;24.80;10.13;;;;;;;;;;4987428;28;20106;-83
2022/12/12 05:52:26;;;;;;;23.23;8.93;;;;;;;;;;4971689;28;20084;-80
2022/12/12 05:54:52;;;;;;;24.77;8.53;;;;;;;;;;4973261;28;20517;-82
2022/12/12 05:57:18;;;;;;;22.17;8.60;;;;;;;;;;4972068;28;20059;-82
2022/12/12 05:59:45;;;;;;;20.73;8.47;;;;;;;;;;4972337;28;20023;-82
2022/12/12 06:02:12;;;;;;;19.20;8.20;;;;;;;;;;4971467;28;20383;-83
2022/12/12 06:04:38;;;;;;;23.50;8.90;;;;;;;;;;4987722;28;20030;-83
2022/12/12 06:07:04;;;;;;;19.67;8.50;;;;;;;;;;4972751;28;20059;-81
2022/12/12 06:09:29;;;;;;;23.80;8.97;;;;;;;;;;4988752;28;20062;-81
2022/12/12 06:11:55;;;;;;;27.87;8.27;;;;;;;;;;4971785;28;20034;-82
2022/12/12 06:14:20;;;;;;;25.40;8.93;;;;;;;;;;4988869;28;20030;-81
2022/12/12 06:16:46;;;;;;;25.83;9.57;;;;;;;;;;4992497;28;20035;-83
2022/12/12 06:19:11;;;;;;;20.30;8.13;;;;;;;;;;4975168;28;20039;-83
2022/12/12 06:21:37;;;;;;;22.07;9.03;;;;;;;;;;4976318;28;20471;-82
2022/12/12 06:24:06;;;;;;;22.03;8.53;;;;;;;;;;4986345;28;20469;-81
2022/12/12 06:26:35;;;;;;;23.93;8.93;;;;;;;;;;4982636;28;20089;-80
2022/12/12 06:29:00;;;;;;;20.67;8.47;;;;;;;;;;4987680;28;20154;-85
2022/12/12 06:31:26;;;;;;;18.50;8.27;;;;;;;;;;4974447;28;20034;-84
2022/12/12 06:33:52;;;;;;;17.60;8.77;;;;;;;;;;4976692;28;20803;-84
2022/12/12 06:36:23;;;;;;;20.23;8.43;;;;;;;;;;4975438;28;20095;-84
2022/12/12 06:38:50;;;;;;;17.30;8.53;;;;;;;;;;4990527;28;20615;-84
2022/12/12 06:41:16;;;;;;;17.17;8.10;;;;;;;;;;4975970;28;20034;-85
2022/12/12 06:43:42;;;;;;;18.33;7.77;;;;;;;;;;4987732;28;20031;-82
2022/12/12 06:46:13;;;;;;;23.67;9.17;;;;;;;;;;4976313;28;20483;-83
2022/12/12 06:48:38;;;;;;;17.33;7.57;;;;;;;;;;4993577;28;20446;-85
2022/12/12 06:51:06;;;;;;;19.70;7.70;;;;;;;;;;4976075;28;20048;-83
2022/12/12 06:53:32;;;;;;;18.83;7.67;;;;;;;;;;4976713;28;20390;-85
2022/12/12 06:55:57;;;;;;;20.07;8.20;;;;;;;;;;4966026;28;20049;-83
2022/12/12 06:58:23;;;;;;;18.03;7.27;;;;;;;;;;4978595;28;20027;-82
2022/12/12 07:00:52;;;;;;;23.70;8.47;;;;;;;;;;4976554;28;20098;-83
2022/12/12 07:03:17;;;;;;;20.03;8.17;;;;;;;;;;4978973;28;20027;-80
2022/12/12 07:05:44;;;;;;;25.83;8.73;;;;;;;;;;4974083;28;20520;-85
2022/12/12 07:08:10;;;;;;;19.73;8.70;;;;;;;;;;4982380;28;20378;-83
2022/12/12 07:10:36;;;;;;;19.87;8.47;;;;;;;;;;4988354;28;20038;-84
2022/12/12 07:13:02;;;;;;;23.17;8.53;;;;;;;;;;4974286;28;20037;-84
2022/12/12 07:15:29;;;;;;;18.23;7.67;;;;;;;;;;4975567;28;20486;-81
2022/12/12 07:17:54;;;;;;;21.77;8.33;;;;;;;;;;4971449;28;20054;-81
2022/12/12 07:20:20;;;;;;;20.20;8.60;;;;;;;;;;4974202;28;20537;-81
2022/12/12 07:22:46;;;;;;;24.27;7.57;;;;;;;;;;4991020;28;20019;-85
2022/12/12 07:25:14;;;;;;;18.77;8.77;;;;;;;;;;4972858;28;20129;-83
2022/12/12 07:27:40;;;;;;;17.73;8.47;;;;;;;;;;4986713;28;20034;-80
2022/12/12 07:30:06;;;;;;;20.80;8.77;;;;;;;;;;4969262;28;20057;-83
2022/12/12 07:32:31;;;;;;;19.73;7.63;;;;;;;;;;4974331;28;20117;-88
2022/12/12 07:34:57;;;;;;;24.13;10.03;;;;;;;;;;4988025;28;20023;-85
2022/12/12 07:37:22;;;;;;;21.80;9.37;;;;;;;;;;4976502;28;20026;-79
2022/12/12 07:39:48;;;;;;;17.47;7.63;;;;;;;;;;4974916;28;20035;-81
2022/12/12 07:42:14;;;;;;;21.70;8.37;;;;;;;;;;4974002;28;20035;-81
2022/12/12 07:44:41;;;;;;;21.67;8.90;;;;;;;;;;4978218;28;20039;-84
2022/12/12 07:47:10;;;;;;;21.50;7.80;;;;;;;;;;4972625;28;20027;-79
2022/12/12 07:49:36;;;;;;;22.57;8.50;;;;;;;;;;4988270;28;20046;-86
2022/12/12 07:52:03;;;;;;;16.97;7.13;;;;;;;;;;4968078;28;20386;-84
2022/12/12 07:54:28;;;;;;;18.07;8.73;;;;;;;;;;4972557;28;20031;-86
2022/12/12 07:56:54;;;;;;;21.00;9.23;;;;;;;;;;4967216;28;20125;-83
2022/12/12 07:59:19;;;;;;;22.70;8.67;;;;;;;;;;4975388;28;20527;-80
2022/12/12 08:01:45;;;;;;;23.03;9.17;;;;;;;;;;4975390;28;20026;-82
2022/12/12 08:04:11;;;;;;;17.30;7.53;;;;;;;;;;4988478;28;20062;-83
2022/12/12 08:06:36;;;;;;;22.57;9.63;;;;;;;;;;4982434;28;20050;-81
2022/12/12 08:09:02;;;;;;;24.17;9.77;;;;;;;;;;4988776;28;20034;-82
2022/12/12 08:11:27;;;;;;;20.43;8.10;;;;;;;;;;4972087;28;20033;-80
2022/12/12 08:13:53;;;;;;;22.53;8.43;;;;;;;;;;4972581;28;20034;-81
2022/12/12 08:16:25;;;;;;;18.93;8.07;;;;;;;;;;4984289;28;21761;-82
2022/12/12 08:18:55;;;;;;;18.10;7.33;;;;;;;;;;4973039;28;20051;-85
2022/12/12 08:21:21;;;;;;;24.33;8.07;;;;;;;;;;4974032;28;20030;-83
2022/12/12 08:23:47;;;;;;;19.10;8.10;;;;;;;;;;4988671;28;20338;-84
2022/12/12 08:26:14;;;;;;;18.23;8.43;;;;;;;;;;4972076;28;20069;-83
2022/12/12 08:28:43;;;;;;;17.73;8.53;;;;;;;;;;4986666;28;20034;-84
2022/12/12 08:31:12;;;;;;;18.07;7.70;;;;;;;;;;4969630;28;20102;-82
2022/12/12 08:33:37;;;;;;;19.70;7.77;;;;;;;;;;4971837;28;20343;-82
2022/12/12 08:36:17;;;;;;;22.23;8.83;;;;;;;;;;4987121;28;20146;-86
2022/12/12 08:38:43;;;;;;;18.60;8.03;;;;;;;;;;4973130;28;20372;-81
2022/12/12 08:41:10;;;;;;;18.27;8.47;;;;;;;;;;4971054;28;20099;-83
2022/12/12 08:43:38;;;;;;;15.23;7.13;;;;;;;;;;4972754;28;20026;-86
2022/12/12 08:46:06;;;;;;;14.07;7.07;;;;;;;;;;4969134;28;20146;-83
2022/12/12 08:48:34;;;;;;;19.90;7.90;;;;;;;;;;4976304;28;20109;-85
2022/12/12 08:51:00;;;;;;;21.50;8.50;;;;;;;;;;4982728;28;20522;-84
2022/12/12 08:53:26;;;;;;;21.00;8.33;;;;;;;;;;4986561;28;20174;-83
2022/12/12 08:55:52;;;;;;;21.33;8.27;;;;;;;;;;4969129;28;20022;-83
2022/12/12 08:58:18;;;;;;;16.20;7.63;;;;;;;;;;4962418;28;20085;-83
2022/12/12 09:00:44;;;;;;;20.00;8.27;;;;;;;;;;4967522;28;20075;-80
2022/12/12 09:03:09;;;;;;;17.50;7.33;;;;;;;;;;4972383;28;20035;-84
2022/12/12 09:05:44;;;;;;;17.00;7.23;;;;;;;;;;4964941;28;20071;-81
2022/12/12 09:08:12;;;;;;;18.83;7.90;;;;;;;;;;4987259;28;20026;-82
2022/12/12 09:10:38;;;;;;;20.67;8.63;;;;;;;;;;4963942;28;20058;-79
2022/12/12 09:13:06;;;;;;;17.87;8.33;;;;;;;;;;4981032;28;20066;-81
2022/12/12 09:15:36;;;;;;;20.00;8.10;;;;;;;;;;4975496;28;20031;-81
2022/12/12 09:18:02;;;;;;;16.57;7.90;;;;;;;;;;4971777;28;20045;-84
2022/12/12 09:20:28;;;;;;;17.03;6.60;;;;;;;;;;4970071;28;20050;-86
2022/12/12 09:22:54;;;;;;;15.77;7.90;;;;;;;;;;4985028;28;20031;-83
2022/12/12 09:25:20;;;;;;;16.83;7.73;;;;;;;;;;4961329;28;20035;-80
2022/12/12 09:27:48;;;;;;;24.83;12.23;;;;;;;;;;4931557;28;20135;-82
2022/12/12 09:30:13;;;;;;;17.30;7.63;;;;;;;;;;4953729;28;20410;-82
2022/12/12 09:32:40;;;;;;;18.17;7.20;;;;;;;;;;4948797;28;20035;-86
2022/12/12 09:35:06;;;;;;;20.93;7.57;;;;;;;;;;4948772;28;20568;-83
2022/12/12 09:37:32;;;;;;;17.50;7.60;;;;;;;;;;4952532;28;20031;-81
2022/12/12 09:39:58;;;;;;;17.77;7.57;;;;;;;;;;4952175;28;20054;-85
2022/12/12 09:42:27;;;;;;;17.37;7.47;;;;;;;;;;4954155;28;20054;-86
2022/12/12 09:44:57;;;;;;;19.27;7.80;;;;;;;;;;4950587;28;20034;-82
2022/12/12 09:47:48;;;;;;;26.03;8.23;;;;;;;;;;4954430;28;20559;-83
2022/12/12 09:50:22;;;;;;;15.03;7.73;;;;;;;;;;4954164;28;20028;-84
2022/12/12 09:52:48;;;;;;;20.80;9.13;;;;;;;;;;4975339;28;20081;-83
2022/12/12 09:55:22;;;;;;;18.97;7.30;;;;;;;;;;4962169;28;20031;-85
2022/12/12 09:58:02;;;;;;;17.27;6.60;;;;;;;;;;4947186;28;20061;-87
2022/12/12 10:00:30;;;;;;;22.40;8.47;;;;;;;;;;4950953;28;20007;-84
2022/12/12 10:03:11;;;;;;;18.70;6.77;;;;;;;;;;4954884;28;20220;-84
2022/12/12 10:05:51;;;;;;;18.63;7.13;;;;;;;;;;4954222;28;20035;-85
2022/12/12 10:08:48;;;;;;;16.67;7.90;;;;;;;;;;4962654;28;20035;-85
2022/12/12 10:14:09;;;;;;;15.60;7.25;;;;;;;;;;4948898;28;20042;-85
2022/12/12 10:16:37;;;;;;;16.37;6.67;;;;;;;;;;4950249;28;20458;-83
2022/12/12 10:19:22;;;;;;;17.57;6.53;;;;;;;;;;4968622;28;20138;-88
2022/12/12 10:21:53;;;;;;;12.37;6.67;;;;;;;;;;4957225;28;20470;-83
2022/12/12 10:24:35;;;;;;;17.03;7.00;;;;;;;;;;4966857;28;20034;-82
2022/12/12 10:27:09;;;;;;;14.77;6.90;;;;;;;;;;4949073;28;20058;-84
2022/12/12 10:29:36;;;;;;;12.20;6.03;;;;;;;;;;4960162;28;20028;-83
2022/12/12 10:32:16;;;;;;;17.33;7.77;;;;;;;;;;4948196;28;20102;-84
2022/12/12 10:35:16;;;;;;;13.93;6.57;;;;;;;;;;4959522;28;20055;-86
2022/12/12 10:38:17;;;;;;;18.10;7.33;;;;;;;;;;4952318;28;20162;-83
2022/12/12 10:41:12;;;;;;;22.33;7.93;;;;;;;;;;4965759;28;20027;-81
2022/12/12 10:43:46;;;;;;;19.17;7.23;;;;;;;;;;4930645;28;20054;-83
2022/12/12 10:46:26;;;;;;;14.67;6.50;;;;;;;;;;4954873;28;20034;-85
2022/12/12 10:48:53;;;;;;;13.47;6.30;;;;;;;;;;4976384;28;20031;-82
2022/12/12 10:51:21;;;;;;;12.30;5.80;;;;;;;;;;4951791;28;20035;-85
2022/12/12 10:53:47;;;;;;;12.97;5.43;;;;;;;;;;4955580;28;20040;-80
2022/12/12 10:56:20;;;;;;;11.50;5.90;;;;;;;;;;4946679;28;20071;-83
2022/12/12 10:58:58;;;;;;;12.27;6.30;;;;;;;;;;4951635;28;20039;-82
2022/12/12 11:01:29;;;;;;;12.30;6.10;;;;;;;;;;4949246;28;20103;-82
2022/12/12 11:03:56;;;;;;;18.63;6.00;;;;;;;;;;4957393;28;20031;-81
2022/12/12 11:06:50;;;;;;;19.73;7.77;;;;;;;;;;4968331;28;20035;-88
2022/12/12 11:09:22;;;;;;;11.63;5.20;;;;;;;;;;4965958;28;20038;-84
2022/12/12 11:12:01;;;;;;;17.15;6.55;;;;;;;;;;4938783;29;20368;-83
2022/12/12 11:14:40;;;;;;;12.90;5.03;;;;;;;;;;4970998;28;20099;-84
2022/12/12 11:17:22;;;;;;;12.83;5.50;;;;;;;;;;4967005;28;20114;-85
2022/12/12 11:19:48;;;;;;;11.45;5.25;;;;;;;;;;4958342;28;20118;-84
2022/12/12 11:22:14;;;;;;;11.33;5.07;;;;;;;;;;4972128;28;20479;-85
2022/12/12 11:24:45;;;;;;;11.60;5.10;;;;;;;;;;4960283;28;20059;-85
2022/12/12 11:27:30;;;;;;;17.30;5.83;;;;;;;;;;4957533;28;20336;-84
2022/12/12 11:30:25;;;;;;;14.83;5.47;;;;;;;;;;4953898;28;20065;-85
2022/12/12 11:32:54;;;;;;;11.80;5.20;;;;;;;;;;4974512;28;20474;-83
2022/12/12 11:35:38;;;;;;;10.77;5.10;;;;;;;;;;4962972;28;20078;-82
2022/12/12 11:38:17;;;;;;;10.97;5.13;;;;;;;;;;4957761;28;20054;-84
2022/12/12 11:40:44;;;;;;;9.23;5.27;;;;;;;;;;4963370;28;20027;-83
2022/12/12 11:43:23;;;;;;;11.07;5.60;;;;;;;;;;4971816;28;20069;-82
2022/12/12 11:46:15;;;;;;;10.23;4.90;;;;;;;;;;4945291;28;20031;-80
2022/12/12 11:48:53;;;;;;;15.93;5.78;;;;;;;;;;4958499;28;20034;-81
2022/12/12 11:51:34;;;;;;;7.87;4.60;;;;;;;;;;4952502;28;20058;-82
2022/12/12 11:54:03;;;;;;;12.30;5.47;;;;;;;;;;4953898;28;20094;-82
2022/12/12 11:56:35;;;;;;;14.50;5.70;;;;;;;;;;4968976;28;20030;-82
2022/12/12 11:59:08;;;;;;;7.32;4.85;;;;;;;;;;4974269;28;20095;-84
2022/12/12 12:01:37;;;;;;;12.07;5.60;;;;;;;;;;4942721;28;20432;-82
2022/12/12 12:04:39;;;;;;;10.10;5.13;;;;;;;;;;4948155;28;20062;-81
2022/12/12 12:07:41;;;;;;;8.63;4.38;;;;;;;;;;4949242;29;20068;-83
2022/12/12 12:10:24;;;;;;;15.30;5.23;;;;;;;;;;4966080;28;20454;-86
2022/12/12 12:13:17;;;;;;;13.03;5.70;;;;;;;;;;4970331;28;20543;-81
2022/12/12 12:15:59;;;;;;;9.33;4.20;;;;;;;;;;4956615;28;20019;-83
2022/12/12 12:18:48;;;;;;;9.83;4.43;;;;;;;;;;4956915;28;20046;-86
2022/12/12 12:21:29;;;;;;;10.40;4.67;;;;;;;;;;4958138;28;20352;-83
2022/12/12 12:24:05;;;;;;;9.40;3.77;;;;;;;;;;4955693;28;20070;-83
2022/12/12 12:26:36;;;;;;;11.13;4.20;;;;;;;;;;4968412;28;20512;-84
2022/12/12 12:29:18;;;;;;;8.83;4.53;;;;;;;;;;4959015;28;20432;-82
2022/12/12 12:32:17;;;;;;;9.80;5.03;;;;;;;;;;4972139;28;20031;-83
2022/12/12 12:35:18;;;;;;;7.57;3.63;;;;;;;;;;4959122;28;20061;-82
2022/12/12 12:38:08;;;;;;;6.13;3.07;;;;;;;;;;4957119;28;20042;-83
2022/12/12 12:41:10;;;;;;;15.63;4.70;;;;;;;;;;4966692;28;20018;-81
2022/12/12 12:44:14;;;;;;;8.52;3.97;;;;;;;;;;4963229;28;20034;-85
2022/12/12 12:47:52;;;;;;;;;;;;;;;;;;;;;
2022/12/12 12:50:37;;;;;;;6.23;3.90;;;;;;;;;;4932043;29;20072;-82
2022/12/12 12:53:24;;;;;;;9.33;4.30;;;;;;;;;;4931044;29;20032;-79
2022/12/12 12:56:03;;;;;;;7.57;3.50;;;;;;;;;;4967635;28;20051;-82
2022/12/12 12:58:41;;;;;;;8.53;4.30;;;;;;;;;;4985836;28;20482;-85
2022/12/12 13:01:18;;;;;;;7.03;3.40;;;;;;;;;;4953430;28;20641;-82
2022/12/12 13:03:53;;;;;;;9.87;4.50;;;;;;;;;;4955509;28;20039;-83
2022/12/12 13:06:42;;;;;;;6.40;4.00;;;;;;;;;;4956698;28;20688;-86
2022/12/12 13:09:25;;;;;;;10.40;4.77;;;;;;;;;;4974668;28;20035;-82
2022/12/12 13:11:58;;;;;;;11.57;3.57;;;;;;;;;;4958024;28;20031;-83
2022/12/12 13:14:54;;;;;;;9.27;4.43;;;;;;;;;;4955504;28;20122;-83
2022/12/12 13:17:33;;;;;;;7.37;4.33;;;;;;;;;;4946191;28;20126;-81
2022/12/12 13:20:15;;;;;;;10.70;4.37;;;;;;;;;;4941165;28;20087;-83
2022/12/12 13:22:44;;;;;;;8.05;4.22;;;;;;;;;;4946037;28;20540;-86
2022/12/12 13:25:19;;;;;;;8.50;3.90;;;;;;;;;;4942221;28;20399;-83
2022/12/12 13:28:06;;;;;;;8.50;4.00;;;;;;;;;;4951063;28;20031;-87
2022/12/12 13:31:16;;;;;;;7.20;3.27;;;;;;;;;;4948610;28;20094;-85
2022/12/12 13:33:46;;;;;;;7.50;4.20;;;;;;;;;;4959482;28;20078;-84
2022/12/12 13:36:20;;;;;;;6.10;3.47;;;;;;;;;;4963126;28;20688;-83
2022/12/12 13:38:53;;;;;;;9.20;3.80;;;;;;;;;;4946665;28;20495;-81
2022/12/12 13:41:19;;;;;;;13.13;4.30;;;;;;;;;;4948672;28;20030;-82
2022/12/12 13:43:54;;;;;;;9.27;3.90;;;;;;;;;;4948399;28;20450;-90
2022/12/12 13:46:26;;;;;;;7.17;3.40;;;;;;;;;;4959368;28;20037;-85
2022/12/12 13:48:54;;;;;;;10.50;4.70;;;;;;;;;;4965007;28;20027;-81
2022/12/12 13:51:34;;;;;;;9.13;3.90;;;;;;;;;;4954155;28;20114;-81
2022/12/12 13:54:32;;;;;;;11.60;4.23;;;;;;;;;;4954204;28;20062;-84
2022/12/12 13:57:01;;;;;;;7.00;3.60;;;;;;;;;;4935582;28;20043;-83
2022/12/12 13:59:30;;;;;;;6.50;3.80;;;;;;;;;;4950475;28;20069;-82
2022/12/12 14:02:02;;;;;;;11.50;4.77;;;;;;;;;;4963957;28;20082;-81
2022/12/12 14:04:29;;;;;;;8.27;3.83;;;;;;;;;;4962016;28;20035;-82
2022/12/12 14:07:04;;;;;;;5.93;3.00;;;;;;;;;;4946557;28;20046;-83
2022/12/12 14:09:38;;;;;;;7.77;4.00;;;;;;;;;;4965895;28;20058;-80
2022/12/12 14:12:19;;;;;;;7.23;4.00;;;;;;;;;;4958287;28;20030;-84
2022/12/12 14:15:03;;;;;;;8.27;4.00;;;;;;;;;;4965682;28;20038;-82
2022/12/12 14:17:31;;;;;;;9.40;3.53;;;;;;;;;;4968309;28;20031;-82
2022/12/12 14:19:58;;;;;;;14.93;7.13;;;;;;;;;;4970862;28;20103;-82
2022/12/12 14:22:26;;;;;;;5.40;3.57;;;;;;;;;;4966360;28;20483;-83
2022/12/12 14:25:10;;;;;;;8.73;3.63;;;;;;;;;;4961708;28;20582;-82
2022/12/12 14:27:51;;;;;;;7.27;4.07;;;;;;;;;;4959692;28;20465;-82
2022/12/12 14:30:30;;;;;;;6.90;3.40;;;;;;;;;;4946321;28;20041;-83
2022/12/12 14:33:07;;;;;;;9.93;4.27;;;;;;;;;;4953828;28;20470;-83
2022/12/12 14:35:58;;;;;;;5.70;3.60;;;;;;;;;;4967765;28;20035;-82
2022/12/12 14:38:34;;;;;;;5.60;3.83;;;;;;;;;;4956815;28;20062;-83
2022/12/12 14:41:04;;;;;;;7.40;3.75;;;;;;;;;;4956065;28;20617;-82
2022/12/12 14:43:34;;;;;;;9.83;4.27;;;;;;;;;;4953145;28;20107;-87
2022/12/12 14:46:01;;;;;;;7.33;3.47;;;;;;;;;;4952743;28;20030;-81
2022/12/12 14:48:38;;;;;;;7.70;3.57;;;;;;;;;;4969315;28;20023;-82
2022/12/12 14:51:08;;;;;;;6.27;3.27;;;;;;;;;;4968319;28;20285;-85
2022/12/12 14:53:37;;;;;;;6.57;3.63;;;;;;;;;;4967662;28;20062;-82
2022/12/12 14:56:11;;;;;;;8.20;4.23;;;;;;;;;;4962050;28;20039;-85
2022/12/12 14:59:04;;;;;;;8.37;3.20;;;;;;;;;;4966995;28;20499;-86
2022/12/12 15:01:43;;;;;;;8.63;4.00;;;;;;;;;;4945674;28;20059;-84
2022/12/12 15:04:21;;;;;;;6.63;3.33;;;;;;;;;;4954936;28;20042;-86
2022/12/12 15:06:54;;;;;;;7.20;4.00;;;;;;;;;;4967413;28;20122;-79
2022/12/12 15:09:26;;;;;;;7.87;4.33;;;;;;;;;;4958295;28;20066;-80
2022/12/12 15:12:04;;;;;;;9.65;4.28;;;;;;;;;;4954433;28;21510;-84
2022/12/12 15:14:30;;;;;;;7.07;3.90;;;;;;;;;;4951133;28;20039;-82
2022/12/12 15:16:59;;;;;;;5.33;3.63;;;;;;;;;;4958335;28;20030;-82
2022/12/12 15:19:38;;;;;;;8.23;3.97;;;;;;;;;;4952667;28;20039;-82
2022/12/12 15:22:22;;;;;;;8.80;4.33;;;;;;;;;;4953107;28;20045;-82